Enter the Airport ICAO Code

Search by Airport or City

Current Weather

SAVC | General Enrique Mosconi International Airport

Comodoro Rivadavia, Chubut, Argentina

Last Update 33 Minutes Ago

Clear Sky

Temperature of 17 ºC

Light Winds from South

Temperature

17 ºC

Dew Point Temperature

01 ºC

Relative Humidity

34.05 %

Wind Direction

South (190º, Ranging from 130º to 260º)

Wind Velocity

6 km/h (03 kt)

Gusts

None

Visibility

No Significant Reductions

Sea Level Pressure

1022 hPa (Hectopascals)

Layers of Clouds

None

METAR SAVC 211300Z 19003KT 130V260 CAVOK 17/01 Q1022

Weather Forecast

SAVC | General Enrique Mosconi International Airport

Comodoro Rivadavia, Chubut, Argentina

Forecast valid for the next 22 Hours

From now on it is expected:

Clear Sky

Moderate Winds from NorthEast

In 1 hour it is expected the begining of 3 hours with intermittent periods of:

Partly Cloudy Sky

In 11 to 15 hours it is expected the begining of:

Moderate Winds from North

In 16 to 19 hours it is expected the begining of:

Moderate to Strong Winds from NorthWest with Gusts

Maximum Temperature

23 ºC in 5 Hours

Minimum Temperature

11 ºC in 20 Hours

TAF SAVC 211100Z 2112/2212 05010KT CAVOK TX23/2119Z TN11/2210Z TEMPO 2115/2118 9999 SCT040 BECMG 2201/2205 36010KT BECMG 2206/2209 30020G30KT